createdAt,value
2023-04-11T00:01:24.484Z,1090.9
2023-04-11T00:03:08.191Z,1093
2023-04-11T00:04:51.876Z,1092.9
2023-04-11T00:06:35.581Z,1089.5
2023-04-11T00:08:19.283Z,1089.4
2023-04-11T00:10:02.981Z,1089
2023-04-11T00:11:46.690Z,1085.4
2023-04-11T00:13:30.391Z,1087.2
2023-04-11T00:15:14.097Z,1088
2023-04-11T00:16:57.813Z,1088.4
2023-04-11T00:18:41.497Z,1086.1
2023-04-11T00:20:25.201Z,1082
2023-04-11T00:22:08.912Z,1079.7
2023-04-11T00:23:52.597Z,1080.5
2023-04-11T00:25:36.307Z,1078.1
2023-04-11T00:27:20.010Z,1081.8
2023-04-11T00:29:03.718Z,1086.5
2023-04-11T00:30:47.417Z,1090.6
2023-04-11T00:32:31.109Z,1093.3
2023-04-11T00:34:14.818Z,1089.6
2023-04-11T00:35:58.521Z,1089.4
2023-04-11T00:37:42.218Z,1088
2023-04-11T00:39:25.916Z,1089.5
2023-04-11T00:41:09.627Z,1091.9
2023-04-11T00:42:53.329Z,1093.7
2023-04-11T00:44:37.031Z,1092.5
2023-04-11T00:46:20.735Z,1086.8
2023-04-11T00:48:04.435Z,1088.7
2023-04-11T00:49:48.142Z,1091.2
2023-04-11T00:51:31.843Z,1094.9
2023-04-11T00:53:15.543Z,1093
2023-04-11T00:54:59.240Z,1090.5
2023-04-11T00:56:42.944Z,1089.4
2023-04-11T00:58:26.643Z,1090.8
2023-04-11T01:00:10.348Z,1091
2023-04-11T01:01:54.057Z,1086
2023-04-11T01:03:37.757Z,1090.8
2023-04-11T01:05:21.454Z,1091
2023-04-11T01:07:05.164Z,1096
2023-04-11T01:08:48.881Z,1097.4
2023-04-11T01:10:32.568Z,1093.9
2023-04-11T01:12:16.270Z,1093.5
2023-04-11T01:13:59.972Z,1094.8
2023-04-11T01:15:43.683Z,1096.8
2023-04-11T01:17:27.375Z,1100.1
2023-04-11T01:19:11.089Z,1102.8
2023-04-11T01:20:54.790Z,1103.3
2023-04-11T01:22:38.523Z,1105
2023-04-11T01:24:22.189Z,1104.3
2023-04-11T01:26:05.897Z,1103.1
2023-04-11T01:27:49.600Z,1102.7
2023-04-11T01:29:33.295Z,1103.4
2023-04-11T01:31:16.995Z,1105
2023-04-11T01:33:00.703Z,1105.5
2023-04-11T01:34:44.413Z,1106.5
2023-04-11T01:36:28.116Z,1108.3
2023-04-11T01:38:11.807Z,1107.7
2023-04-11T01:39:55.514Z,1107
2023-04-11T01:41:39.218Z,1109.8
2023-04-11T01:43:22.912Z,1117.7
2023-04-11T01:45:06.625Z,1116.3
2023-04-11T01:46:50.329Z,1113.2
2023-04-11T01:48:34.010Z,1110.9
2023-04-11T01:50:17.720Z,1107.2
2023-04-11T01:52:01.423Z,1105.2
2023-04-11T01:53:45.131Z,1103
2023-04-11T01:55:28.833Z,1105.7
2023-04-11T01:57:12.527Z,1107.3
2023-04-11T01:58:56.228Z,1111.6
2023-04-11T02:00:39.934Z,1113.6
2023-04-11T02:02:23.635Z,1117.9
2023-04-11T02:04:07.338Z,1115.8
2023-04-11T02:05:51.044Z,1118.1
2023-04-11T02:07:34.743Z,1123.1
2023-04-11T02:09:18.450Z,1120.9
2023-04-11T02:11:02.150Z,1120.3
2023-04-11T02:12:45.856Z,1123.4
2023-04-11T02:14:29.556Z,1121.7
2023-04-11T02:16:13.253Z,1123.1
2023-04-11T02:17:56.972Z,1123.6
2023-04-11T02:19:40.671Z,1120.8
2023-04-11T02:21:24.369Z,1122.6
2023-04-11T02:23:08.081Z,1122.6
2023-04-11T02:24:51.766Z,1123.1
2023-04-11T02:26:35.472Z,1125.8
2023-04-11T02:28:19.176Z,1128.9
2023-04-11T02:30:02.888Z,1128.3
2023-04-11T02:31:46.572Z,1123.8
2023-04-11T02:33:30.286Z,1121.5
2023-04-11T02:35:13.983Z,1124
2023-04-11T02:36:57.690Z,1125.4
2023-04-11T02:38:41.392Z,1124.2
2023-04-11T02:40:25.093Z,1125.7
2023-04-11T02:42:08.801Z,1122.7
2023-04-11T02:43:52.498Z,1122.4
2023-04-11T02:45:36.205Z,1125.5
2023-04-11T02:47:19.911Z,1124.7
2023-04-11T02:50:47.313Z,1122.7
2023-04-11T02:52:31.008Z,1124.2
2023-04-11T02:54:14.719Z,1125.8
2023-04-11T02:55:58.421Z,1128.1
2023-04-11T02:57:42.108Z,1132
2023-04-11T02:59:25.826Z,1134.5
2023-04-11T03:01:09.526Z,1135.3
2023-04-11T03:02:53.222Z,1130.6
2023-04-11T03:04:36.930Z,1124.5
2023-04-11T03:06:20.631Z,1129.6
2023-04-11T03:08:04.334Z,1132.4
2023-04-11T03:09:48.040Z,1133.2
2023-04-11T03:11:31.732Z,1135.3
2023-04-11T03:13:15.432Z,1136.1
2023-04-11T03:14:59.148Z,1135.9
2023-04-11T03:16:42.865Z,1138.5
2023-04-11T03:18:26.545Z,1138
2023-04-11T03:20:10.265Z,1140.6
2023-04-11T03:21:53.952Z,1144.3
2023-04-11T03:23:37.667Z,1149.1
2023-04-11T03:25:21.359Z,1150.1
2023-04-11T03:27:05.078Z,1150.9
2023-04-11T03:28:48.770Z,1152.2
2023-04-11T03:30:32.471Z,1149.9
2023-04-11T03:32:16.186Z,1148
2023-04-11T03:33:59.893Z,1148.7
2023-04-11T03:35:43.581Z,1152.6
2023-04-11T03:37:27.278Z,1151.4
2023-04-11T03:39:10.975Z,1154.7
2023-04-11T03:40:54.683Z,1156.2
2023-04-11T03:42:38.393Z,1159.7
2023-04-11T03:44:22.093Z,1159.6
2023-04-11T03:46:05.808Z,1160.7
2023-04-11T03:47:49.505Z,1157.4
2023-04-11T03:49:33.195Z,1156.9
2023-04-11T03:51:16.897Z,1157.1
2023-04-11T03:53:00.604Z,1160.5
2023-04-11T03:54:44.309Z,1163
2023-04-11T03:56:28.019Z,1162.5
2023-04-11T03:58:11.697Z,1162.9
2023-04-11T03:59:55.409Z,1168.6
2023-04-11T04:01:39.125Z,1171.3
2023-04-11T04:03:22.815Z,1172.6
2023-04-11T04:05:06.515Z,1175
2023-04-11T04:06:50.223Z,1173.6
2023-04-11T04:08:33.925Z,1170.2
2023-04-11T04:10:17.627Z,1170.8
2023-04-11T04:12:01.322Z,1171.6
2023-04-11T04:13:45.027Z,1174.6
2023-04-11T04:15:28.741Z,1177.1
2023-04-11T04:17:12.455Z,1179.6
2023-04-11T04:18:56.136Z,1178.7
2023-04-11T04:20:39.843Z,1186.6
2023-04-11T04:22:23.540Z,1192.2
2023-04-11T04:24:07.238Z,1188.9
2023-04-11T04:25:50.953Z,1189.8
2023-04-11T04:27:34.654Z,1191.7
2023-04-11T04:29:18.361Z,1192.2
2023-04-11T04:31:02.049Z,1187.4
2023-04-11T04:32:45.759Z,1190.1
2023-04-11T04:34:29.459Z,1191.9
2023-04-11T04:36:13.163Z,1189.7
2023-04-11T04:37:56.868Z,1190.2
2023-04-11T04:39:40.570Z,1190.8
2023-04-11T04:41:24.259Z,1192
2023-04-11T04:43:07.977Z,1192.6
2023-04-11T04:44:51.670Z,1192.3
2023-04-11T04:46:35.387Z,1196.1
2023-04-11T04:48:19.096Z,1197.3
2023-04-11T04:50:02.782Z,1194.3
2023-04-11T04:51:46.484Z,1189.8
2023-04-11T04:53:30.192Z,1188.7
2023-04-11T04:55:13.966Z,1190.2
2023-04-11T04:56:57.596Z,1195.1
2023-04-11T04:58:41.286Z,1197.9
2023-04-11T05:00:25.005Z,1192.7
2023-04-11T05:02:08.712Z,1190.9
2023-04-11T05:03:52.408Z,1194.6
2023-04-11T05:05:36.109Z,1197.4
2023-04-11T05:07:19.814Z,1196.1
2023-04-11T05:09:03.517Z,1198.7
2023-04-11T05:10:47.215Z,1202.9
2023-04-11T05:12:30.927Z,1211.1
2023-04-11T05:14:14.653Z,1214.6
2023-04-11T05:15:58.341Z,1217.9
2023-04-11T05:17:42.018Z,1219.5
2023-04-11T05:19:25.725Z,1221.2
2023-04-11T05:21:09.432Z,1217.3
2023-04-11T05:22:53.128Z,1221
2023-04-11T05:24:36.838Z,1222.9
2023-04-11T05:26:20.551Z,1222.4
2023-04-11T05:28:04.243Z,1224.2
2023-04-11T05:29:47.951Z,1227.9
2023-04-11T05:31:31.650Z,1229.7
2023-04-11T05:33:15.352Z,1236.2
2023-04-11T05:34:59.055Z,1247.6
2023-04-11T05:36:42.752Z,1321.6
2023-04-11T05:38:26.467Z,1344.4
2023-04-11T05:40:10.176Z,1345.2
2023-04-11T05:41:54.019Z,1351.7
2023-04-11T05:43:37.573Z,1347.9
2023-04-11T05:45:21.283Z,1348.6
2023-04-11T05:47:04.980Z,1348.1
2023-04-11T05:48:48.691Z,1348.1
2023-04-11T05:50:32.382Z,1354
2023-04-11T05:52:16.092Z,1600.3
2023-04-11T05:53:59.798Z,1459.3
2023-04-11T05:55:43.488Z,1364.4
2023-04-11T05:57:27.217Z,1368.3
2023-04-11T05:59:10.895Z,1393.7
2023-04-11T06:00:54.595Z,1386.1
2023-04-11T06:02:38.313Z,1380.8
2023-04-11T06:04:21.985Z,1381.3
2023-04-11T06:06:05.699Z,1380.9
2023-04-11T06:07:49.400Z,1379
2023-04-11T06:09:33.192Z,1376.5
2023-04-11T06:11:16.813Z,1378.6
2023-04-11T06:13:00.512Z,1381.5
2023-04-11T06:14:44.208Z,1377.1
2023-04-11T06:16:27.914Z,1372.4
2023-04-11T06:18:11.614Z,1372.5
2023-04-11T06:19:55.313Z,1372.7
2023-04-11T06:21:39.026Z,1373.3
2023-04-11T06:23:22.724Z,1374.8
2023-04-11T06:25:06.430Z,1379.8
2023-04-11T06:26:50.138Z,1379.2
2023-04-11T06:28:33.844Z,1375.7
2023-04-11T06:30:17.535Z,1376.7
2023-04-11T06:32:01.227Z,1376.8
2023-04-11T06:33:44.933Z,1378.8
2023-04-11T06:35:28.648Z,1379.2
2023-04-11T06:37:12.352Z,1378.8
2023-04-11T06:38:56.050Z,1381.1
2023-04-11T06:40:39.745Z,1393
2023-04-11T06:42:23.451Z,1404.6
2023-04-11T06:44:07.152Z,1397.1
2023-04-11T06:45:50.850Z,1384.9
2023-04-11T06:47:34.560Z,1378.4
2023-04-11T06:49:18.263Z,1375.5
2023-04-11T06:51:01.961Z,1371.7
2023-04-11T06:52:45.677Z,1366.1
2023-04-11T06:54:29.375Z,1361.7
2023-04-11T06:56:13.076Z,1359.3
2023-04-11T06:57:56.786Z,1371.1
2023-04-11T06:59:40.491Z,1387.7
2023-04-11T07:01:24.180Z,1387.5
2023-04-11T07:03:07.895Z,1391.7
2023-04-11T07:04:51.595Z,1557.4
2023-04-11T07:06:35.307Z,1654.2
2023-04-11T07:08:18.976Z,1630.4
2023-04-11T07:10:02.692Z,1633.5
2023-04-11T07:11:46.399Z,1619.9
2023-04-11T07:13:30.092Z,1590.6
2023-04-11T07:15:13.798Z,1577.1
2023-04-11T07:16:57.502Z,1551.6
2023-04-11T07:18:41.208Z,1545.1
2023-04-11T07:20:24.915Z,1543.4
2023-04-11T07:22:08.615Z,1542.5
2023-04-11T07:23:52.305Z,1556.2
2023-04-11T07:25:36.017Z,1565.3
2023-04-11T07:27:19.722Z,1566.6
2023-04-11T07:29:03.422Z,1559.2
2023-04-11T07:30:47.125Z,1554.2
2023-04-11T07:32:30.822Z,1544
2023-04-11T07:34:14.530Z,1545.2
2023-04-11T07:35:58.228Z,1551
2023-04-11T07:37:41.945Z,1568.3
2023-04-11T07:39:25.636Z,1583.6
2023-04-11T07:41:09.332Z,1586.8
2023-04-11T07:42:53.045Z,1589.3
2023-04-11T07:44:36.736Z,1596.2
2023-04-11T07:46:20.438Z,1598.7
2023-04-11T07:48:04.152Z,1599.4
2023-04-11T07:49:47.838Z,1600.2
2023-04-11T07:51:31.548Z,1597.2
2023-04-11T07:53:15.250Z,1595.7
2023-04-11T07:54:58.946Z,1595.4
2023-04-11T07:56:42.654Z,1586.7
2023-04-11T07:58:26.351Z,1579.4
2023-04-11T08:00:10.056Z,1572.1
2023-04-11T08:01:53.771Z,1566.3
2023-04-11T08:03:37.454Z,1560.6
2023-04-11T08:05:21.170Z,1557.4
2023-04-11T08:07:04.876Z,1556.7
2023-04-11T08:08:48.568Z,1556.5
2023-04-11T08:10:32.268Z,1553.3
2023-04-11T08:12:15.978Z,1550.6
2023-04-11T08:13:59.673Z,1550.9
2023-04-11T08:15:43.445Z,1554.1
2023-04-11T08:17:27.087Z,1556.3
2023-04-11T08:19:10.783Z,1553.5
2023-04-11T08:20:54.495Z,1554.9
2023-04-11T08:22:38.198Z,1561.7
2023-04-11T08:24:21.902Z,1564.1
2023-04-11T08:26:05.598Z,1564.7
2023-04-11T08:27:49.303Z,1564.1
2023-04-11T08:29:33.017Z,1578.3
2023-04-11T08:31:16.700Z,1581.7
2023-04-11T08:33:00.404Z,1576.8
2023-04-11T08:34:44.118Z,1577.1
2023-04-11T08:36:27.825Z,1576.2
2023-04-11T08:38:11.514Z,1575.7
2023-04-11T08:41:38.929Z,1575.7
2023-04-11T08:43:22.634Z,1577.4
2023-04-11T08:45:06.320Z,1584.6
2023-04-11T08:46:50.025Z,1589.3
2023-04-11T08:48:33.727Z,1591.2
2023-04-11T08:50:17.430Z,1574
2023-04-11T08:52:01.130Z,1576.6
2023-04-11T08:53:44.939Z,1581.3
2023-04-11T08:55:28.541Z,1579.2
2023-04-11T08:57:12.243Z,1572.8
2023-04-11T09:00:39.650Z,1565.2
2023-04-11T09:02:23.358Z,1561.9
2023-04-11T09:04:07.049Z,1552
2023-04-11T09:05:50.752Z,1550
2023-04-11T09:07:34.457Z,1544.4
2023-04-11T09:09:25.348Z,1521.6
2023-04-11T09:11:01.872Z,1518.1
2023-04-11T09:12:45.581Z,1515.7
2023-04-11T09:14:29.275Z,1542.2
2023-04-11T09:16:12.969Z,1566.6
2023-04-11T09:17:56.663Z,1558.9
2023-04-11T09:19:40.380Z,1560
2023-04-11T09:21:24.082Z,1557.1
2023-04-11T09:23:07.777Z,1517
2023-04-11T09:24:51.489Z,1486.7
2023-04-11T09:26:35.182Z,1508.2
2023-04-11T09:28:18.896Z,1531.6
2023-04-11T09:30:02.578Z,1548.6
2023-04-11T09:31:46.273Z,1563.9
2023-04-11T09:33:29.997Z,1569.9
2023-04-11T09:35:13.701Z,1566
2023-04-11T09:36:57.419Z,1559.8
2023-04-11T09:40:25.026Z,1549.6
2023-04-11T09:42:08.502Z,1539.6
2023-04-11T09:43:52.206Z,1535.9
2023-04-11T09:45:35.914Z,1528.5
2023-04-11T09:47:19.616Z,1518.5
2023-04-11T09:49:03.325Z,1513
2023-04-11T09:50:47.025Z,1512.5
2023-04-11T09:52:30.713Z,1510.8
2023-04-11T09:54:14.421Z,1504.5
2023-04-11T09:55:58.132Z,1497.9
2023-04-11T09:57:41.828Z,1495.5
2023-04-11T09:59:25.521Z,1496.5
2023-04-11T10:01:09.231Z,1496.2
2023-04-11T10:02:52.956Z,1493.6
2023-04-11T10:04:36.637Z,1489.2
2023-04-11T10:06:20.343Z,1485
2023-04-11T10:08:04.036Z,1479
2023-04-11T10:09:47.787Z,1478.4
2023-04-11T10:11:31.448Z,1479.6
2023-04-11T10:13:15.146Z,1486.4
2023-04-11T10:14:58.851Z,1497.1
2023-04-11T10:16:42.549Z,1500.4
2023-04-11T10:18:26.244Z,1506.6
2023-04-11T10:20:09.953Z,1523.2
2023-04-11T10:21:53.654Z,1523.8
2023-04-11T10:23:37.362Z,1520.8
2023-04-11T10:25:21.062Z,1516.3
2023-04-11T10:27:04.764Z,1524.4
2023-04-11T10:28:48.471Z,1539.4
2023-04-11T10:30:32.176Z,1529.4
2023-04-11T10:32:15.864Z,1517.5
2023-04-11T10:33:59.612Z,1515
2023-04-11T10:35:43.279Z,1512.5
2023-04-11T10:37:26.989Z,1508
2023-04-11T10:39:10.680Z,1512
2023-04-11T10:40:54.382Z,1511.8
2023-04-11T10:42:38.091Z,1519.8
2023-04-11T10:44:21.967Z,1525
2023-04-11T10:46:05.477Z,1523.4
2023-04-11T10:47:49.365Z,1525.3
2023-04-11T10:49:33.106Z,1579.8
2023-04-11T10:51:16.764Z,1593.9
2023-04-11T10:53:00.517Z,1573.8
2023-04-11T10:54:44.174Z,1554.9
2023-04-11T10:56:27.881Z,1540.3
2023-04-11T10:58:11.567Z,1527
2023-04-11T10:59:55.337Z,1518.5
2023-04-11T11:01:38.986Z,1511.7
2023-04-11T11:03:22.632Z,1507.9
2023-04-11T11:10:17.374Z,1505.6
2023-04-11T11:12:01.114Z,1504.4
2023-04-11T11:13:44.859Z,1504.8
2023-04-11T11:15:28.604Z,1503.6
2023-04-11T11:17:12.369Z,1503.3
2023-04-11T11:18:56.040Z,1501.4
2023-04-11T11:20:39.539Z,1505.8
2023-04-11T11:22:23.239Z,1505.3
2023-04-11T11:24:07.111Z,1506.2
2023-04-11T11:25:50.849Z,1503.5
2023-04-11T11:27:34.515Z,1505.3
2023-04-11T11:29:18.225Z,1505.9
2023-04-11T11:31:01.897Z,1501.8
2023-04-11T11:32:45.682Z,1500.2
2023-04-11T11:36:12.974Z,1514.4
2023-04-11T11:37:56.760Z,1518.5
2023-04-11T11:39:40.413Z,1520.1
2023-04-11T11:41:24.150Z,1517.7
2023-04-11T11:43:07.694Z,1519.6
2023-04-11T11:44:51.592Z,1515.9
2023-04-11T11:46:35.244Z,1512.5
2023-04-11T11:48:18.974Z,1513.3
2023-04-11T11:50:02.514Z,1512
2023-04-11T11:51:46.357Z,1504.8
2023-04-11T11:53:30.091Z,1504.3
2023-04-11T11:55:13.743Z,1507.5
2023-04-11T11:56:57.486Z,1512.4
2023-04-11T11:58:41.186Z,1510.8
2023-04-11T12:00:24.863Z,1508.8
2023-04-11T12:02:08.564Z,1499.5
2023-04-11T12:03:52.105Z,1489.7
2023-04-11T12:05:35.984Z,1489.6
2023-04-11T12:07:19.720Z,1494.1
2023-04-11T12:09:03.352Z,1498.9
2023-04-11T12:10:47.100Z,1493.9
2023-04-11T12:12:30.814Z,1485.6
2023-04-11T12:14:14.313Z,1481.2
2023-04-11T12:15:58.180Z,1480
2023-04-11T12:17:41.955Z,1475.6
2023-04-11T12:19:25.582Z,1474.1
2023-04-11T12:21:09.298Z,1472.3
2023-04-11T12:22:52.939Z,1464.2
2023-04-11T12:24:36.725Z,1464
2023-04-11T12:26:20.436Z,1464.3
2023-04-11T12:28:04.055Z,1464.4
2023-04-11T12:29:47.824Z,1462.5
2023-04-11T12:31:31.337Z,1458.8
2023-04-11T12:33:15.225Z,1457.9
2023-04-11T12:34:58.968Z,1454.7
2023-04-11T12:36:42.599Z,1443
2023-04-11T12:38:26.295Z,1436.9
2023-04-11T12:40:10.078Z,1441.6
2023-04-11T12:41:53.554Z,1438.8
2023-04-11T12:48:48.387Z,1434.9
2023-04-11T12:50:32.277Z,1428.7
2023-04-11T12:52:15.942Z,1424.9
2023-04-11T12:53:59.664Z,1432.1
2023-04-11T12:55:43.199Z,1440.2
2023-04-11T12:57:27.006Z,1444.1
2023-04-11T12:59:10.783Z,1444.6
2023-04-11T13:00:54.487Z,1444.5
2023-04-11T13:02:38.008Z,1439.5
2023-04-11T13:04:21.976Z,1446.3
2023-04-11T13:06:05.486Z,1565.8
2023-04-11T13:07:49.297Z,1588.3
2023-04-11T13:09:33.018Z,1566.4
2023-04-11T13:11:16.684Z,1511.4
2023-04-11T13:13:00.416Z,1480
2023-04-11T13:14:44.108Z,1470.6
2023-04-11T13:16:27.800Z,1459.7
2023-04-11T13:18:11.546Z,1455.5
2023-04-11T13:19:55.298Z,1451.1
2023-04-11T13:21:38.838Z,1448.3
2023-04-11T13:23:22.634Z,1440.2
2023-04-11T13:25:06.140Z,1435.7
2023-04-11T13:26:50.020Z,1426.5
2023-04-11T13:28:33.631Z,1418.5
2023-04-11T13:30:17.420Z,1414.2
2023-04-11T13:32:01.489Z,1417.1
2023-04-11T13:33:44.840Z,1414.5
2023-04-11T13:35:28.361Z,1407.6
2023-04-11T13:37:12.234Z,1406.2
2023-04-11T13:38:55.756Z,1408.3
2023-04-11T13:40:39.640Z,1412.7
2023-04-11T13:42:23.342Z,1411.7
2023-04-11T13:44:06.936Z,1404.1
2023-04-11T13:45:50.725Z,1399.4
2023-04-11T13:47:34.389Z,1396
2023-04-11T13:49:18.086Z,1394.3
2023-04-11T13:51:01.780Z,1388.8
2023-04-11T13:52:45.532Z,1385.8
2023-04-11T13:54:29.327Z,1387.2
2023-04-11T13:56:12.987Z,1388.7
2023-04-11T13:57:56.642Z,1387.4
2023-04-11T13:59:40.359Z,1385.3
2023-04-11T14:01:24.077Z,1383.2
2023-04-11T14:03:07.893Z,1378
2023-04-11T14:04:51.480Z,1370.1
2023-04-11T14:06:35.174Z,1363.9
2023-04-11T14:10:02.434Z,1355.8
2023-04-11T14:11:46.269Z,1353.9
2023-04-11T14:13:29.978Z,1357.5
2023-04-11T14:15:13.711Z,1357
2023-04-11T14:16:57.424Z,1358.9
2023-04-11T14:18:41.059Z,1355.7
2023-04-11T14:20:24.785Z,1352.6
2023-04-11T14:22:08.476Z,1348.8
2023-04-11T14:23:52.010Z,1346.3
2023-04-11T14:25:35.903Z,1344.2
2023-04-11T14:27:19.429Z,1346.7
2023-04-11T14:29:03.295Z,1349.6
2023-04-11T14:30:46.994Z,1346.4
2023-04-11T14:32:30.682Z,1343.2
2023-04-11T14:34:14.378Z,1339.4
2023-04-11T14:35:58.153Z,1338
2023-04-11T14:37:41.744Z,1343.1
2023-04-11T14:39:25.519Z,1346
2023-04-11T14:41:09.048Z,1350
2023-04-11T14:42:52.749Z,1355.6
2023-04-11T14:44:36.495Z,1356.4
2023-04-11T14:46:20.147Z,1359.2
2023-04-11T14:48:03.863Z,1366.4
2023-04-11T14:49:47.693Z,1371.8
2023-04-11T14:51:31.429Z,1393.3
2023-04-11T14:53:15.138Z,1405.1
2023-04-11T14:54:58.820Z,1409
2023-04-11T14:56:42.529Z,1414.9
2023-04-11T14:58:26.194Z,1416.8
2023-04-11T15:00:09.910Z,1419.1
2023-04-11T15:01:53.472Z,1425
2023-04-11T15:03:37.338Z,1428.8
2023-04-11T15:07:04.806Z,1442.9
2023-04-11T15:08:48.458Z,1447.9
2023-04-11T15:10:32.168Z,1453.3
2023-04-11T15:12:15.863Z,1462
2023-04-11T15:13:59.492Z,1461.9
2023-04-11T15:15:43.095Z,1465.2
2023-04-11T15:17:26.802Z,1467.8
2023-04-11T15:19:10.699Z,1471.2
2023-04-11T15:20:54.205Z,1475.7
2023-04-11T15:22:38.010Z,1480.4
2023-04-11T15:24:21.733Z,1483.7
2023-04-11T15:26:05.429Z,1487.1
2023-04-11T15:27:49.142Z,1487.4
2023-04-11T15:29:32.894Z,1487.9
2023-04-11T15:31:16.647Z,1488.1
2023-04-11T15:33:00.281Z,1491.7
2023-04-11T15:34:43.979Z,1496.6
2023-04-11T15:36:27.701Z,1497.4
2023-04-11T15:38:11.425Z,1499.9
2023-04-11T15:39:55.101Z,1502.2
2023-04-11T15:41:38.797Z,1505.9
2023-04-11T15:43:22.533Z,1510.5
2023-04-11T15:45:06.250Z,1516.6
2023-04-11T15:46:49.865Z,1520
2023-04-11T15:48:33.619Z,1520.8
2023-04-11T15:50:17.315Z,1515.9
2023-04-11T15:52:01.038Z,1515
2023-04-11T15:53:44.548Z,1514.3
2023-04-11T15:55:28.412Z,1516.5
2023-04-11T15:57:12.132Z,1516.2
2023-04-11T15:58:55.817Z,1515.9
2023-04-11T16:00:39.519Z,1510
2023-04-11T16:02:23.185Z,1505.5
2023-04-11T16:04:06.819Z,1505.6
2023-04-11T16:05:50.585Z,1512.8
2023-04-11T16:07:34.364Z,1516.8
2023-04-11T16:09:18.082Z,1518.1
2023-04-11T16:11:01.707Z,1527.8
2023-04-11T16:12:45.486Z,1529.5
2023-04-11T16:14:29.127Z,1533
2023-04-11T16:16:12.795Z,1533.2
2023-04-11T16:17:56.556Z,1533.4
2023-04-11T16:19:40.246Z,1535.3
2023-04-11T16:21:23.943Z,1541
2023-04-11T16:23:07.650Z,1543.5
2023-04-11T16:24:51.360Z,1546.9
2023-04-11T16:26:35.065Z,1553
2023-04-11T16:28:18.788Z,1554.3
2023-04-11T16:30:02.306Z,1554.6
2023-04-11T16:31:46.093Z,1554.1
2023-04-11T16:33:29.889Z,1558.9
2023-04-11T16:35:13.401Z,1557.9
2023-04-11T16:36:57.311Z,1560.1
2023-04-11T16:38:40.917Z,1560
2023-04-11T16:40:24.736Z,1552.3
2023-04-11T16:42:08.422Z,1523.5
2023-04-11T16:43:51.921Z,1496.4
2023-04-11T16:45:35.747Z,1484.2
2023-04-11T16:47:19.518Z,1481
2023-04-11T16:49:03.198Z,1474
2023-04-11T16:50:47.074Z,1468.8
2023-04-11T16:52:30.654Z,1464.6
2023-04-11T16:54:14.208Z,1457.8
2023-04-11T16:55:58.019Z,1450.4
2023-04-11T16:57:41.620Z,1442.7
2023-04-11T16:59:25.395Z,1435.4
2023-04-11T17:01:09.108Z,1431.3
2023-04-11T17:02:52.870Z,1424.9
2023-04-11T17:04:36.518Z,1426.9
2023-04-11T17:06:20.067Z,1425.4
2023-04-11T17:08:03.923Z,1427.5
2023-04-11T17:09:47.628Z,1427.3
2023-04-11T17:11:31.230Z,1420.1
2023-04-11T17:13:15.102Z,1415.4
2023-04-11T17:14:58.707Z,1412.5
2023-04-11T17:16:42.284Z,1412.2
2023-04-11T17:18:26.126Z,1408.7
2023-04-11T17:20:09.865Z,1407.7
2023-04-11T17:21:53.541Z,1403.1
2023-04-11T17:23:37.281Z,1396.4
2023-04-11T17:25:20.772Z,1393.5
2023-04-11T17:27:04.506Z,1393.5
2023-04-11T17:28:48.374Z,1386.2
2023-04-11T17:30:32.089Z,1376
2023-04-11T17:32:15.745Z,1372.8
2023-04-11T17:33:59.431Z,1367.9
2023-04-11T17:35:43.188Z,1368.3
2023-04-11T17:37:26.776Z,1382.4
2023-04-11T17:39:10.600Z,1386.3
2023-04-11T17:40:54.258Z,1389.5
2023-04-11T17:42:37.992Z,1427.4
2023-04-11T17:44:21.746Z,1485.1
2023-04-11T17:46:05.366Z,1472.9
2023-04-11T17:47:49.117Z,1446.9
2023-04-11T17:49:32.815Z,1397.7
2023-04-11T17:51:16.474Z,1359.3
2023-04-11T17:53:00.147Z,1364.1
2023-04-11T17:54:43.912Z,1367
2023-04-11T17:56:27.589Z,1367.5
2023-04-11T17:58:11.298Z,1364.9
2023-04-11T17:59:55.020Z,1362.1
2023-04-11T18:01:38.532Z,1360.9
2023-04-11T18:03:22.390Z,1357.2
2023-04-11T18:05:06.163Z,1354.1
2023-04-11T18:06:49.866Z,1352.9
2023-04-11T18:08:33.525Z,1354
2023-04-11T18:10:17.097Z,1354.5
2023-04-11T18:12:00.988Z,1353.1
2023-04-11T18:13:44.461Z,1350.3
2023-04-11T18:15:28.297Z,1346.5
2023-04-11T18:17:12.069Z,1343.6
2023-04-11T18:18:55.693Z,1342.1
2023-04-11T18:20:39.412Z,1344.1
2023-04-11T18:22:23.174Z,1343.2
2023-04-11T18:24:06.821Z,1339.5
2023-04-11T18:25:50.442Z,1340.2
2023-04-11T18:27:34.254Z,1343
2023-04-11T18:29:17.922Z,1341.4
2023-04-11T18:31:01.706Z,1338.9
2023-04-11T18:32:45.362Z,1334.1
2023-04-11T18:34:29.081Z,1333.9
2023-04-11T18:36:12.776Z,1338.4
2023-04-11T18:37:56.494Z,1334.7
2023-04-11T18:39:40.179Z,1328.5
2023-04-11T18:41:23.822Z,1328.9
2023-04-11T18:43:07.414Z,1325
2023-04-11T18:44:51.244Z,1314.6
2023-04-11T18:46:34.985Z,1310.7
2023-04-11T18:48:18.501Z,1307.3
2023-04-11T18:50:02.437Z,1302.5
2023-04-11T18:51:46.048Z,1302.5
2023-04-11T18:53:29.817Z,1304.3
2023-04-11T18:55:13.485Z,1308.3
2023-04-11T18:56:57.226Z,1310.3
2023-04-11T18:58:41.204Z,1314.7
2023-04-11T19:00:24.430Z,1311.4
2023-04-11T19:02:08.336Z,1310.1
2023-04-11T19:03:52.016Z,1318.3
2023-04-11T19:05:35.695Z,1322.3
2023-04-11T19:07:19.421Z,1322.9
2023-04-11T19:09:03.063Z,1322.4
2023-04-11T19:10:46.808Z,1318.1
2023-04-11T19:12:30.415Z,1315.2
2023-04-11T19:14:14.168Z,1312.5
2023-04-11T19:15:57.763Z,1314.7
2023-04-11T19:17:41.454Z,1315.4
2023-04-11T19:19:25.282Z,1315.4
2023-04-11T19:21:08.876Z,1318.1
2023-04-11T19:22:52.732Z,1319
2023-04-11T19:24:36.322Z,1315.8
2023-04-11T19:26:19.971Z,1317.9
2023-04-11T19:28:03.670Z,1323.6
2023-04-11T19:29:47.384Z,1322
2023-04-11T19:31:31.074Z,1317.9
2023-04-11T19:33:14.933Z,1319
2023-04-11T19:34:58.661Z,1317.7
2023-04-11T19:36:42.316Z,1319.5
2023-04-11T19:38:25.940Z,1320.4
2023-04-11T19:40:09.689Z,1325.4
2023-04-11T19:41:53.459Z,1325.8
2023-04-11T19:43:36.990Z,1326
2023-04-11T19:45:20.852Z,1330.1
2023-04-11T19:47:04.401Z,1328.1
2023-04-11T19:48:48.144Z,1324.9
2023-04-11T19:50:31.948Z,1322.1
2023-04-11T19:52:15.552Z,1319.5
2023-04-11T19:53:59.313Z,1316.8
2023-04-11T19:55:43.102Z,1309.2
2023-04-11T19:57:26.618Z,1282.7
2023-04-11T19:59:10.430Z,1248.1
2023-04-11T20:00:54.202Z,1240.3
2023-04-11T20:02:37.852Z,1232.1
2023-04-11T20:04:21.518Z,1229.4
2023-04-11T20:06:05.239Z,1225.2
2023-04-11T20:07:49.005Z,1227.2
2023-04-11T20:09:32.757Z,1228.2
2023-04-11T20:11:16.405Z,1228.9
2023-04-11T20:12:59.998Z,1228.6
2023-04-11T20:14:43.852Z,1228.4
2023-04-11T20:16:27.385Z,1230.8
2023-04-11T20:18:11.137Z,1228.6
2023-04-11T20:19:54.852Z,1226.9
2023-04-11T20:21:38.581Z,1225.4
2023-04-11T20:23:22.171Z,1224.9
2023-04-11T20:25:05.981Z,1224.9
2023-04-11T20:26:49.561Z,1225.3
2023-04-11T20:28:33.376Z,1225.2
2023-04-11T20:30:16.979Z,1228.8
2023-04-11T20:32:00.915Z,1227.4
2023-04-11T20:33:44.506Z,1228.3
2023-04-11T20:35:28.304Z,1227.3
2023-04-11T20:37:11.785Z,1222.1
2023-04-11T20:38:55.609Z,1215.1
2023-04-11T20:40:39.186Z,1217.5
2023-04-11T20:42:23.013Z,1218.5
2023-04-11T20:44:06.765Z,1225.2
2023-04-11T20:45:50.326Z,1230.7
2023-04-11T20:47:33.999Z,1230
2023-04-11T20:49:17.860Z,1230.4
2023-04-11T20:51:01.394Z,1230.1
2023-04-11T20:52:45.263Z,1230.9
2023-04-11T20:54:28.805Z,1228.5
2023-04-11T20:56:12.656Z,1230.6
2023-04-11T20:57:56.339Z,1228.2
2023-04-11T20:59:40.069Z,1229.6
2023-04-11T21:01:23.736Z,1230.9
2023-04-11T21:03:07.446Z,1226
2023-04-11T21:04:51.183Z,1202.6
2023-04-11T21:06:34.721Z,1188.1
2023-04-11T21:08:18.505Z,1185
2023-04-11T21:10:02.201Z,1186.6
2023-04-11T21:11:45.873Z,1195.8
2023-04-11T21:13:29.707Z,1201.5
2023-04-11T21:15:13.295Z,1201.2
2023-04-11T21:16:57.136Z,1194.8
2023-04-11T21:18:40.655Z,1190.6
2023-04-11T21:20:24.335Z,1196.6
2023-04-11T21:22:08.061Z,1203
2023-04-11T21:23:51.867Z,1201.4
2023-04-11T21:25:35.607Z,1200.2
2023-04-11T21:27:19.302Z,1197.5
2023-04-11T21:29:02.993Z,1197.4
2023-04-11T21:30:46.700Z,1197.1
2023-04-11T21:32:30.263Z,1197.2
2023-04-11T21:34:13.955Z,1198.3
2023-04-11T21:35:57.837Z,1198.5
2023-04-11T21:37:41.363Z,1202.8
2023-04-11T21:39:25.070Z,1200
2023-04-11T21:41:08.948Z,1198
2023-04-11T21:42:52.473Z,1194.1
2023-04-11T21:44:36.219Z,1194.3
2023-04-11T21:46:20.018Z,1194.3
2023-04-11T21:48:03.688Z,1195.9
2023-04-11T21:49:47.418Z,1195.4
2023-04-11T21:51:30.994Z,1190.7
2023-04-11T21:53:14.833Z,1196.1
2023-04-11T21:54:58.557Z,1207
2023-04-11T21:56:42.225Z,1209.4
2023-04-11T21:58:25.802Z,1216.6
2023-04-11T22:00:09.633Z,1223.5
2023-04-11T22:01:53.249Z,1225.8
2023-04-11T22:03:37.043Z,1227.3
2023-04-11T22:05:20.616Z,1227.4